Ana Sayfa
METAR-TAF:

METAR-TAF

Havaalanları :

Merimbula, Avustralya

Enlem: 36-54-31S, Boylam: 149-54-05E, yükseklik: 2 m

Güncel hava durumu gözlemi

Rapor saat 20:00 UTC de 31 dakika önce yapıldı.
Rüzgar kuzeybatıdan 5 kt
Sıcaklık 8°C
Nem 100%
Basınç 1036 hPa
Görüş mesafesi 10 km veya daha fazla
5000 ft yükseklikte çok bulutlu

METAR: YMER 252000Z AUTO 31005KT 9999 // OVC050 08/08 Q1036

Saat: 06:31 (20:31 UTC)


TAF: eksik

4.000'den fazla havaalanı için hava durumu gözlemleri ve tahminleri (METAR ve TAF raporları).

Kullanılabilir istasyonlar harita üzerinde sarı ve kırmızı noktalarla gösterilir.

İstasyonun adını görmek için fareyi noktanın üzerinde gezdirin.

Sonrasında hava gözlem ve tahminlerini görmek için tıklayın.

Haritayı değiştirmek için: yaklaştırmak için siyah artı işaretli yeşil düğmeye ve uzaklaştırmak için de eksi işaretli düğmeye hızla tıklayın; bitişik haritalar için yeşil okları kullanın.


METAR-TAF: